Bradford-on-Avon, United Kingdom
Current Conditions -  °F | °C
As of 1:20 PM on Monday 22 Dec 2014 (Local Time) from EGGD Reporting Station
Broken Clouds Broken Clouds  
Wind Chill: 52°   Ceiling: 1100
Heat Index: 52°   Visibility: 6mi
Dew Point: 48°   Wind: 20mph
Humidity: 88%   Direction: 240°WSW
Pressure: 30.09"   Gusts: NA
Location:  51.35°N, 2.25°W
Report Text: EGGD 221320Z 24017KT 9999 BKN011 11/09 Q1019
Loading
Personal Weather Stations






























Interactive Weather Map New forecast layout! Learn more

10-Day Weather Forecast

Advertisements
Track Severe Weather on mobile